createdAt,value
2023-05-18T00:00:37.792Z,26.10
2023-05-18T00:03:05.895Z,25.60
2023-05-18T00:05:34.565Z,25.40
2023-05-18T00:08:02.860Z,26.10
2023-05-18T00:10:31.219Z,26.10
2023-05-18T00:12:59.365Z,26.10
2023-05-18T00:15:29.167Z,26.00
2023-05-18T00:17:58.698Z,26.20
2023-05-18T00:20:27.551Z,26.20
2023-05-18T00:22:55.581Z,26.10
2023-05-18T00:25:23.994Z,26.70
2023-05-18T00:27:52.177Z,26.50
2023-05-18T00:30:20.635Z,26.50
2023-05-18T00:32:50.031Z,26.40
2023-05-18T00:35:18.210Z,26.90
2023-05-18T00:37:46.224Z,26.40
2023-05-18T00:40:14.620Z,26.10
2023-05-18T00:42:42.636Z,26.70
2023-05-18T00:45:11.565Z,26.80
2023-05-18T00:47:39.835Z,26.30
2023-05-18T00:50:10.998Z,26.30
2023-05-18T00:52:39.615Z,26.60
2023-05-18T00:55:09.367Z,26.70
2023-05-18T00:57:38.321Z,27.00
2023-05-18T01:00:10.730Z,26.90
2023-05-18T01:02:42.661Z,26.80
2023-05-18T01:05:13.215Z,26.90
2023-05-18T01:07:43.217Z,26.70
2023-05-18T01:10:13.118Z,26.90
2023-05-18T01:12:46.390Z,27.40
2023-05-18T01:15:18.026Z,27.00
2023-05-18T01:18:05.278Z,27.20
2023-05-18T01:20:38.909Z,27.40
2023-05-18T01:24:00.355Z,27.40
2023-05-18T01:26:37.487Z,27.20
2023-05-18T01:29:11.370Z,27.30
2023-05-18T01:31:39.784Z,27.60
2023-05-18T01:34:07.864Z,27.60
2023-05-18T01:36:36.081Z,27.40
2023-05-18T01:39:05.351Z,27.70
2023-05-18T01:41:39.241Z,27.50
2023-05-18T01:44:24.941Z,27.60
2023-05-18T01:47:01.089Z,27.10
2023-05-18T01:49:33.770Z,27.50
2023-05-18T01:52:07.777Z,27.50
2023-05-18T01:54:39.988Z,27.60
2023-05-18T01:57:10.465Z,27.60
2023-05-18T01:59:39.014Z,27.30
2023-05-18T02:02:07.666Z,27.90
2023-05-18T02:04:36.137Z,27.40
2023-05-18T02:07:04.404Z,28.00
2023-05-18T02:09:32.466Z,27.80
2023-05-18T02:12:00.758Z,27.40
2023-05-18T02:14:30.284Z,27.50
2023-05-18T02:16:58.460Z,27.60
2023-05-18T02:19:26.590Z,27.70
2023-05-18T02:21:54.697Z,27.40
2023-05-18T02:24:23.153Z,27.40
2023-05-18T02:26:51.184Z,27.60
2023-05-18T02:29:27.477Z,27.50
2023-05-18T02:31:56.960Z,27.90
2023-05-18T02:34:25.011Z,27.90
2023-05-18T02:36:53.476Z,27.90
2023-05-18T02:39:21.588Z,28.00
2023-05-18T02:41:49.610Z,27.70
2023-05-18T02:44:17.667Z,27.80
2023-05-18T02:46:45.959Z,27.80
2023-05-18T02:49:15.392Z,27.80
2023-05-18T02:51:43.625Z,28.00
2023-05-18T02:54:11.658Z,28.00
2023-05-18T02:56:41.413Z,28.20
2023-05-18T02:59:09.508Z,27.70
2023-05-18T03:01:39.854Z,28.00
2023-05-18T03:04:07.969Z,27.80
2023-05-18T03:06:38.360Z,28.40
2023-05-18T03:09:06.430Z,27.70
2023-05-18T03:11:34.470Z,28.00
2023-05-18T03:14:02.568Z,28.60
2023-05-18T03:16:30.589Z,28.50
2023-05-18T03:18:59.163Z,28.70
2023-05-18T03:21:34.099Z,28.80
2023-05-18T03:24:04.494Z,28.40
2023-05-18T03:26:32.525Z,28.60
2023-05-18T03:29:01.168Z,29.10
2023-05-18T03:31:29.247Z,28.40
2023-05-18T03:33:57.286Z,28.60
2023-05-18T03:36:27.929Z,29.10
2023-05-18T03:38:55.995Z,28.80
2023-05-18T03:41:25.451Z,29.00
2023-05-18T03:43:53.522Z,29.10
2023-05-18T03:46:21.572Z,28.90
2023-05-18T03:48:49.582Z,29.00
2023-05-18T03:51:17.722Z,29.20
2023-05-18T03:53:45.670Z,29.20
2023-05-18T03:56:14.150Z,28.70
2023-05-18T03:58:44.332Z,29.30
2023-05-18T04:01:12.481Z,28.70
2023-05-18T04:03:42.661Z,29.10
2023-05-18T04:06:11.013Z,29.20
2023-05-18T04:08:40.441Z,29.10
2023-05-18T04:11:08.502Z,29.20
2023-05-18T04:13:39.057Z,29.10
2023-05-18T04:16:10.661Z,29.00
2023-05-18T04:18:38.707Z,28.90
2023-05-18T04:21:07.245Z,29.10
2023-05-18T04:23:38.914Z,29.30
2023-05-18T04:26:07.166Z,28.90
2023-05-18T04:28:37.524Z,28.60
2023-05-18T04:31:06.026Z,29.00
2023-05-18T04:33:35.459Z,29.10
2023-05-18T04:36:04.918Z,29.30
2023-05-18T04:38:34.744Z,28.80
2023-05-18T04:41:05.382Z,29.20
2023-05-18T04:43:33.439Z,28.60
2023-05-18T04:46:01.612Z,29.00
2023-05-18T04:48:30.284Z,29.40
2023-05-18T04:50:59.698Z,29.20
2023-05-18T04:53:28.316Z,29.50
2023-05-18T04:55:56.861Z,29.40
2023-05-18T04:58:25.021Z,29.60
2023-05-18T05:00:53.023Z,29.50
2023-05-18T05:03:21.715Z,29.40
2023-05-18T05:05:49.863Z,29.50
2023-05-18T05:08:19.275Z,29.40
2023-05-18T05:10:47.275Z,29.40
2023-05-18T05:13:15.292Z,29.50
2023-05-18T05:15:43.432Z,29.70
2023-05-18T05:18:11.581Z,29.20
2023-05-18T05:20:39.840Z,30.00
2023-05-18T05:23:07.938Z,29.50
2023-05-18T05:25:37.394Z,29.50
2023-05-18T05:28:05.775Z,29.50
2023-05-18T05:30:37.070Z,29.50
2023-05-18T05:33:05.229Z,29.80
2023-05-18T05:35:33.866Z,29.50
2023-05-18T05:38:02.387Z,29.60
2023-05-18T05:40:30.400Z,29.70
2023-05-18T05:42:59.742Z,29.90
2023-05-18T05:45:28.479Z,29.80
2023-05-18T05:47:56.753Z,29.40
2023-05-18T05:50:24.857Z,29.60
2023-05-18T05:52:52.797Z,29.40
2023-05-18T05:55:20.852Z,29.80
2023-05-18T05:57:48.878Z,30.00
2023-05-18T06:00:19.620Z,29.90
2023-05-18T06:02:47.858Z,29.80
2023-05-18T06:05:16.008Z,29.50
2023-05-18T06:07:44.018Z,29.80
2023-05-18T06:10:12.028Z,29.30
2023-05-18T06:12:40.004Z,29.60
2023-05-18T06:15:10.281Z,29.40
2023-05-18T06:17:40.338Z,29.30
2023-05-18T06:20:09.843Z,29.10
2023-05-18T06:22:37.947Z,28.90
2023-05-18T06:25:08.347Z,28.70
2023-05-18T06:27:36.368Z,28.70
2023-05-18T06:30:05.779Z,28.60
2023-05-18T06:32:33.754Z,28.70
2023-05-18T06:35:04.316Z,28.60
2023-05-18T06:37:32.421Z,28.20
2023-05-18T06:40:00.498Z,16.40
2023-05-18T06:42:28.539Z,15.40
2023-05-18T06:44:56.517Z,15.00
2023-05-18T06:47:24.767Z,14.80
2023-05-18T06:49:52.797Z,14.80
2023-05-18T06:52:23.176Z,14.40
2023-05-18T06:54:52.702Z,14.70
2023-05-18T06:57:21.421Z,13.90
2023-05-18T06:59:53.731Z,14.10
2023-05-18T07:02:22.146Z,18.60
2023-05-18T07:04:51.984Z,23.10
2023-05-18T07:07:21.391Z,23.70
2023-05-18T07:09:49.905Z,24.10
2023-05-18T07:12:17.983Z,23.60
2023-05-18T07:14:46.231Z,24.10
2023-05-18T07:17:14.320Z,23.90
2023-05-18T07:19:42.402Z,23.20
2023-05-18T07:22:10.479Z,23.00
2023-05-18T07:24:39.897Z,22.60
2023-05-18T07:27:07.970Z,23.00
2023-05-18T07:29:36.336Z,22.70
2023-05-18T07:32:04.996Z,22.50
2023-05-18T07:34:32.986Z,23.70
2023-05-18T07:37:01.052Z,23.80
2023-05-18T07:39:29.571Z,23.70
2023-05-18T07:42:00.203Z,23.60
2023-05-18T07:44:28.553Z,23.70
2023-05-18T07:46:56.649Z,23.50
2023-05-18T07:49:25.250Z,23.80
2023-05-18T07:51:53.531Z,23.00
2023-05-18T07:54:21.617Z,23.60
2023-05-18T07:56:50.440Z,23.70
2023-05-18T07:59:21.232Z,22.90
2023-05-18T08:01:49.364Z,23.10
2023-05-18T08:04:17.607Z,23.80
2023-05-18T08:06:46.201Z,23.60
2023-05-18T08:09:14.284Z,23.60
2023-05-18T08:11:44.963Z,23.10
2023-05-18T08:14:13.023Z,23.70
2023-05-18T08:16:42.473Z,24.40
2023-05-18T08:19:10.804Z,24.70
2023-05-18T08:21:38.947Z,24.50
2023-05-18T08:24:08.854Z,23.80
2023-05-18T08:26:36.906Z,24.40
2023-05-18T08:29:09.553Z,24.00
2023-05-18T08:31:38.038Z,23.30
2023-05-18T08:34:08.765Z,23.20
2023-05-18T08:36:37.852Z,23.00
2023-05-18T08:39:06.124Z,22.70
2023-05-18T08:41:37.378Z,22.80
2023-05-18T08:44:18.215Z,22.90
2023-05-18T08:46:48.284Z,23.10
2023-05-18T08:49:20.711Z,23.90
2023-05-18T08:51:55.863Z,23.50
2023-05-18T08:54:24.773Z,23.20
2023-05-18T08:56:54.479Z,22.70
2023-05-18T08:59:25.984Z,22.60
2023-05-18T09:01:55.149Z,22.00
2023-05-18T09:04:25.603Z,22.20
2023-05-18T09:06:56.302Z,19.50
2023-05-18T09:09:26.347Z,16.40
2023-05-18T09:11:55.438Z,12.70
2023-05-18T09:14:25.894Z,13.50
2023-05-18T09:16:54.260Z,12.90
2023-05-18T09:19:24.745Z,12.40
2023-05-18T09:21:53.083Z,11.90
2023-05-18T09:24:24.548Z,13.60
2023-05-18T09:26:53.132Z,13.00
2023-05-18T09:29:24.033Z,14.40
2023-05-18T09:31:54.091Z,14.00
2023-05-18T09:34:22.685Z,12.70
2023-05-18T09:36:53.989Z,15.00
2023-05-18T09:39:22.069Z,15.40
2023-05-18T09:41:57.060Z,15.60
2023-05-18T09:44:35.448Z,15.60
2023-05-18T09:47:04.920Z,15.60
2023-05-18T09:49:32.842Z,16.10
2023-05-18T09:52:02.431Z,16.10
2023-05-18T09:54:30.538Z,16.30
2023-05-18T09:57:10.217Z,16.20
2023-05-18T09:59:39.211Z,16.20
2023-05-18T10:02:08.719Z,16.30
2023-05-18T10:04:38.819Z,16.20
2023-05-18T10:07:26.184Z,15.90
2023-05-18T10:10:03.646Z,16.30
2023-05-18T10:12:31.726Z,15.90
2023-05-18T10:14:59.784Z,15.80
2023-05-18T10:17:28.575Z,15.40
2023-05-18T10:19:58.046Z,15.40
2023-05-18T10:22:28.659Z,15.90
2023-05-18T10:24:58.162Z,15.70
2023-05-18T10:27:29.234Z,15.30
2023-05-18T10:29:59.830Z,15.10
2023-05-18T10:32:30.990Z,15.70
2023-05-18T10:35:00.786Z,15.50
2023-05-18T10:37:34.806Z,14.80
2023-05-18T10:40:06.151Z,15.20
2023-05-18T10:42:35.185Z,15.10
2023-05-18T10:45:04.962Z,15.00
2023-05-18T10:47:39.442Z,15.50
2023-05-18T10:50:09.992Z,15.00
2023-05-18T10:52:39.749Z,14.90
2023-05-18T10:55:10.303Z,14.20
2023-05-18T10:57:45.108Z,14.50
2023-05-18T11:00:14.347Z,14.60
2023-05-18T11:02:43.401Z,13.40
2023-05-18T11:05:12.894Z,11.50
2023-05-18T11:07:46.746Z,12.90
2023-05-18T11:10:15.554Z,13.10
2023-05-18T11:12:44.143Z,13.00
2023-05-18T11:15:12.949Z,13.40
2023-05-18T11:17:41.946Z,13.10
2023-05-18T11:20:18.493Z,13.00
2023-05-18T11:22:51.298Z,13.70
2023-05-18T11:25:46.561Z,14.00
2023-05-18T11:28:15.400Z,14.00
2023-05-18T11:30:52.259Z,13.80
2023-05-18T11:33:28.609Z,14.10
2023-05-18T11:36:07.419Z,14.10
2023-05-18T11:38:55.364Z,14.00
2023-05-18T11:41:35.259Z,13.50
2023-05-18T11:44:16.356Z,14.10
2023-05-18T11:47:01.974Z,13.20
2023-05-18T11:49:33.034Z,14.10
2023-05-18T11:52:10.337Z,13.50
2023-05-18T11:54:46.860Z,14.40
2023-05-18T11:57:18.633Z,14.10
2023-05-18T11:59:48.980Z,14.20
2023-05-18T12:02:22.067Z,13.60
2023-05-18T12:04:53.672Z,13.40
2023-05-18T12:07:23.495Z,13.30
2023-05-18T12:09:52.989Z,13.70
2023-05-18T12:12:23.307Z,13.40
2023-05-18T12:14:56.632Z,10.90
2023-05-18T12:17:25.028Z,10.60
2023-05-18T12:19:53.104Z,11.60
2023-05-18T12:22:21.316Z,11.20
2023-05-18T12:24:54.185Z,11.50
2023-05-18T12:27:26.533Z,12.30
2023-05-18T12:29:55.128Z,12.60
2023-05-18T12:32:23.441Z,12.30
2023-05-18T12:34:52.994Z,12.60
2023-05-18T12:37:37.844Z,11.70
2023-05-18T12:40:10.934Z,12.70
2023-05-18T12:42:39.447Z,12.00
2023-05-18T12:45:11.333Z,11.40
2023-05-18T12:47:43.459Z,12.90
2023-05-18T12:50:12.250Z,11.30
2023-05-18T12:52:41.955Z,10.80
2023-05-18T12:55:21.492Z,10.70
2023-05-18T12:58:02.643Z,11.40
2023-05-18T13:00:34.172Z,11.00
2023-05-18T13:03:12.781Z,10.90
2023-05-18T13:05:44.723Z,10.90
2023-05-18T13:08:15.688Z,11.00
2023-05-18T13:10:49.317Z,10.60
2023-05-18T13:13:23.620Z,11.00
2023-05-18T13:15:52.529Z,11.00
2023-05-18T13:18:20.701Z,11.20
2023-05-18T13:20:53.672Z,11.40
2023-05-18T13:23:24.768Z,11.50
2023-05-18T13:25:55.521Z,11.60
2023-05-18T13:28:25.636Z,11.20
2023-05-18T13:30:53.728Z,11.60
2023-05-18T13:33:22.276Z,10.00
2023-05-18T13:35:50.660Z,9.80
2023-05-18T13:38:18.753Z,10.20
2023-05-18T13:40:47.091Z,11.50
2023-05-18T13:43:16.500Z,11.40
2023-05-18T13:45:44.722Z,11.70
2023-05-18T13:48:14.089Z,12.30
2023-05-18T13:50:42.287Z,12.00
2023-05-18T13:53:10.717Z,12.10
2023-05-18T13:55:38.886Z,11.90
2023-05-18T13:58:06.972Z,12.50
2023-05-18T14:00:36.910Z,11.30
2023-05-18T14:03:06.217Z,12.50
2023-05-18T14:05:34.372Z,11.80
2023-05-18T14:08:02.458Z,12.20
2023-05-18T14:10:31.115Z,12.00
2023-05-18T14:12:59.300Z,11.50
2023-05-18T14:15:27.354Z,11.40
2023-05-18T14:17:56.722Z,12.30
2023-05-18T14:20:25.012Z,12.00
2023-05-18T14:22:53.130Z,11.90
2023-05-18T14:25:21.208Z,12.10
2023-05-18T14:27:49.182Z,11.90
2023-05-18T14:30:17.240Z,11.90
2023-05-18T14:32:45.344Z,11.70
2023-05-18T14:35:14.870Z,11.60
2023-05-18T14:37:42.964Z,12.00
2023-05-18T14:40:11.842Z,11.40
2023-05-18T14:42:39.823Z,12.30
2023-05-18T14:45:09.751Z,11.40
2023-05-18T14:47:37.915Z,11.30
2023-05-18T14:50:07.216Z,11.40
2023-05-18T14:52:36.605Z,11.40
2023-05-18T14:55:05.093Z,12.00
2023-05-18T14:57:33.394Z,11.80
2023-05-18T15:00:01.851Z,11.20
2023-05-18T15:02:29.977Z,11.80
2023-05-18T15:04:58.101Z,11.30
2023-05-18T15:07:26.232Z,11.30
2023-05-18T15:09:56.249Z,11.60
2023-05-18T15:12:24.350Z,11.60
2023-05-18T15:14:52.550Z,12.00
2023-05-18T15:17:21.493Z,11.50
2023-05-18T15:19:49.738Z,11.90
2023-05-18T15:22:17.856Z,12.00
2023-05-18T15:24:46.303Z,11.90
2023-05-18T15:27:15.757Z,12.00
2023-05-18T15:29:43.763Z,12.10
2023-05-18T15:32:11.800Z,12.00
2023-05-18T15:34:40.360Z,12.20
2023-05-18T15:37:08.373Z,11.90
2023-05-18T15:39:38.836Z,12.00
2023-05-18T15:42:07.558Z,12.50
2023-05-18T15:44:36.986Z,12.50
2023-05-18T15:47:05.951Z,12.20
2023-05-18T15:49:34.051Z,12.50
2023-05-18T15:52:02.149Z,12.50
2023-05-18T15:54:30.273Z,12.30
2023-05-18T15:56:58.323Z,12.10
2023-05-18T15:59:26.475Z,12.70
2023-05-18T16:01:55.916Z,12.70
2023-05-18T16:04:23.990Z,12.40
2023-05-18T16:06:52.051Z,12.60
2023-05-18T16:09:20.658Z,12.60
2023-05-18T16:11:49.255Z,13.40
2023-05-18T16:14:17.335Z,12.70
2023-05-18T16:16:45.362Z,12.40
2023-05-18T16:19:14.809Z,12.70
2023-05-18T16:21:43.014Z,12.40
2023-05-18T16:24:11.196Z,12.60
2023-05-18T16:26:40.227Z,13.20
2023-05-18T16:29:09.002Z,12.90
2023-05-18T16:31:37.180Z,12.60
2023-05-18T16:34:05.579Z,12.80
2023-05-18T16:36:36.525Z,13.30
2023-05-18T16:39:04.760Z,12.70
2023-05-18T16:41:32.772Z,12.20
2023-05-18T16:44:00.890Z,13.20
2023-05-18T16:46:29.138Z,12.60
2023-05-18T16:48:57.226Z,12.50
2023-05-18T16:51:27.319Z,13.10
2023-05-18T16:53:57.021Z,12.20
2023-05-18T16:56:25.555Z,12.70
2023-05-18T16:58:53.916Z,12.70
2023-05-18T17:01:28.005Z,13.10
2023-05-18T17:03:57.661Z,12.70
2023-05-18T17:06:26.694Z,13.00
2023-05-18T17:08:58.566Z,13.00
2023-05-18T17:11:27.981Z,13.10
2023-05-18T17:13:57.346Z,13.40
2023-05-18T17:16:26.704Z,13.50
2023-05-18T17:18:56.075Z,13.20
2023-05-18T17:21:26.505Z,12.90
2023-05-18T17:23:56.012Z,12.90
2023-05-18T17:26:25.264Z,13.10
2023-05-18T17:28:53.575Z,13.00
2023-05-18T17:31:21.677Z,13.10
2023-05-18T17:33:49.738Z,13.60
2023-05-18T17:36:18.110Z,12.40
2023-05-18T17:38:47.025Z,11.90
2023-05-18T17:41:16.592Z,11.50
2023-05-18T17:43:44.610Z,11.30
2023-05-18T17:46:12.669Z,11.20
2023-05-18T17:48:40.806Z,11.10
2023-05-18T17:51:08.865Z,11.20
2023-05-18T17:53:41.685Z,11.40
2023-05-18T17:56:10.833Z,10.30
2023-05-18T17:58:42.222Z,11.70
2023-05-18T18:01:11.971Z,12.50
2023-05-18T18:03:40.220Z,12.30
2023-05-18T18:06:08.785Z,12.50
2023-05-18T18:08:43.060Z,12.80
2023-05-18T18:11:11.250Z,13.50
2023-05-18T18:13:40.554Z,13.40
2023-05-18T18:16:08.643Z,13.60
2023-05-18T18:18:37.903Z,13.40
2023-05-18T18:21:07.198Z,13.60
2023-05-18T18:23:36.013Z,14.10
2023-05-18T18:26:04.996Z,14.10
2023-05-18T18:28:34.192Z,13.80
2023-05-18T18:31:04.205Z,14.70
2023-05-18T18:33:33.543Z,13.60
2023-05-18T18:36:05.492Z,14.50
2023-05-18T18:38:34.217Z,14.60
2023-05-18T18:41:04.805Z,13.70
2023-05-18T18:43:35.058Z,14.40
2023-05-18T18:46:04.823Z,14.80
2023-05-18T18:48:32.984Z,14.40
2023-05-18T18:51:01.044Z,14.40
2023-05-18T18:53:29.031Z,14.40
2023-05-18T18:55:57.469Z,15.20
2023-05-18T18:58:25.553Z,15.20
2023-05-18T19:00:53.662Z,15.40
2023-05-18T19:03:23.152Z,15.80
2023-05-18T19:05:51.866Z,15.20
2023-05-18T19:08:19.886Z,15.00
2023-05-18T19:10:47.941Z,15.50
2023-05-18T19:13:16.027Z,15.20
2023-05-18T19:15:44.117Z,15.30
2023-05-18T19:18:12.163Z,15.60
2023-05-18T19:20:41.519Z,15.70
2023-05-18T19:23:09.558Z,16.00
2023-05-18T19:25:37.580Z,16.00
2023-05-18T19:28:06.292Z,16.00
2023-05-18T19:30:34.380Z,16.00
2023-05-18T19:33:02.486Z,16.30
2023-05-18T19:35:31.292Z,16.40
2023-05-18T19:38:02.125Z,16.40
2023-05-18T19:40:30.197Z,16.20
2023-05-18T19:42:59.663Z,16.40
2023-05-18T19:45:27.762Z,16.50
2023-05-18T19:47:55.895Z,17.20
2023-05-18T19:50:24.122Z,17.00
2023-05-18T19:52:52.085Z,16.60
2023-05-18T19:55:21.535Z,17.00
2023-05-18T19:57:49.589Z,17.30
2023-05-18T20:00:18.474Z,17.20
2023-05-18T20:02:46.580Z,17.40
2023-05-18T20:05:18.147Z,17.10
2023-05-18T20:07:46.278Z,17.50
2023-05-18T20:10:14.433Z,17.50
2023-05-18T20:12:43.818Z,17.50
2023-05-18T20:15:12.284Z,17.70
2023-05-18T20:17:40.586Z,17.90
2023-05-18T20:20:09.920Z,18.10
2023-05-18T20:22:38.454Z,18.10
2023-05-18T20:25:08.277Z,18.00
2023-05-18T20:27:37.285Z,18.20
2023-05-18T20:30:08.617Z,18.20
2023-05-18T20:32:36.576Z,18.00
2023-05-18T20:35:04.917Z,17.80
2023-05-18T20:37:34.185Z,18.00
2023-05-18T20:40:07.106Z,18.20
2023-05-18T20:42:40.205Z,17.70
2023-05-18T20:45:12.242Z,17.90
2023-05-18T20:47:41.665Z,18.60
2023-05-18T20:50:10.722Z,18.30
2023-05-18T20:52:38.791Z,18.40
2023-05-18T20:55:09.068Z,18.40
2023-05-18T20:57:38.342Z,18.20
2023-05-18T21:00:10.214Z,18.20
2023-05-18T21:02:38.378Z,18.00
2023-05-18T21:05:07.408Z,18.20
2023-05-18T21:07:39.870Z,18.50
2023-05-18T21:10:08.798Z,18.60
2023-05-18T21:12:38.161Z,18.40
2023-05-18T21:15:09.474Z,18.70
2023-05-18T21:17:37.462Z,14.40
2023-05-18T21:20:07.174Z,18.40
2023-05-18T21:22:35.182Z,17.70
2023-05-18T21:25:05.998Z,17.60
2023-05-18T21:27:34.189Z,17.70
2023-05-18T21:30:02.338Z,17.90
2023-05-18T21:32:31.895Z,18.50
2023-05-18T21:34:59.994Z,18.80
2023-05-18T21:37:28.094Z,18.20
2023-05-18T21:39:56.194Z,18.50
2023-05-18T21:42:24.225Z,18.60
2023-05-18T21:44:52.204Z,18.80
2023-05-18T21:47:20.365Z,19.10
2023-05-18T21:49:49.756Z,19.20
2023-05-18T21:52:17.914Z,19.50
2023-05-18T21:54:46.013Z,19.20
2023-05-18T21:57:14.063Z,19.70
2023-05-18T21:59:42.182Z,19.60
2023-05-18T22:02:10.507Z,19.60
2023-05-18T22:04:38.721Z,19.50
2023-05-18T22:07:08.296Z,19.90
2023-05-18T22:09:36.750Z,19.90
2023-05-18T22:12:05.804Z,19.90
2023-05-18T22:14:33.834Z,20.10
2023-05-18T22:17:02.081Z,20.10
2023-05-18T22:19:30.301Z,20.20
2023-05-18T22:21:58.551Z,20.30
2023-05-18T22:24:27.937Z,20.10
2023-05-18T22:26:56.245Z,20.50
2023-05-18T22:29:24.297Z,20.50
2023-05-18T22:31:52.361Z,20.40
2023-05-18T22:34:20.412Z,20.90
2023-05-18T22:36:48.468Z,20.90
2023-05-18T22:39:17.964Z,20.70
2023-05-18T22:41:51.999Z,21.10
2023-05-18T22:44:25.896Z,20.90
2023-05-18T22:46:54.197Z,20.70
2023-05-18T22:49:22.278Z,20.90
2023-05-18T22:51:52.487Z,21.50
2023-05-18T22:54:20.570Z,21.20
2023-05-18T22:56:49.947Z,21.10
2023-05-18T22:59:18.120Z,21.30
2023-05-18T23:01:47.746Z,21.70
2023-05-18T23:04:17.995Z,21.40
2023-05-18T23:06:48.585Z,21.30
2023-05-18T23:09:16.948Z,22.00
2023-05-18T23:11:45.928Z,21.90
2023-05-18T23:14:15.295Z,22.10
2023-05-18T23:16:43.526Z,22.00
2023-05-18T23:19:12.326Z,21.90
2023-05-18T23:21:41.028Z,22.30
2023-05-18T23:24:12.062Z,22.00
2023-05-18T23:26:42.580Z,22.10
2023-05-18T23:29:10.855Z,22.30
2023-05-18T23:31:40.377Z,22.60
2023-05-18T23:34:09.107Z,22.70
2023-05-18T23:36:42.498Z,22.50
2023-05-18T23:39:11.632Z,22.80
2023-05-18T23:41:40.446Z,22.50
2023-05-18T23:44:09.361Z,22.80
2023-05-18T23:46:38.130Z,22.90
2023-05-18T23:49:08.552Z,22.70
2023-05-18T23:51:37.436Z,23.10
2023-05-18T23:54:10.095Z,23.00
2023-05-18T23:56:39.021Z,22.80
2023-05-18T23:59:07.967Z,23.10
